ANDO2: Washita River, OK

Data processed at Tue May 21 2019 23:50


All information presented herein is the property of the government of the United States of America and may be revised or deleted at any time without prior notice.
Dissemination of this information without the expressed written consent of the Public Affairs Office, Tulsa District U.S. Army Corps of Engineers is strictly prohibited.
These data are gathered electronically and, as presented, have not undergone any form of quality control. These data are not guaranteed to be valid or correct.
Go to home page.
Go to station list.
Go to home page.

Upstream stations:

Downstream station:
Previous Day
Next Day
Current Day
    
SHEF ID:       ANDO2     Washita River at Anadarko, OK
STATION TYPE:  
Regulating: Stage =    19.00, Flow =     6257

               PRECIP PRECIP(A)     STAGE  RIV-FLOW  BAT-LOAD
                   in        in        ft       cfs      volt
              Ccp-Rev   Ccp-Rev   Ccp-Rev   Ccp-Rev   Ccp-Rev
(US/Central)
05/21 00:00      0.00      0.00     12.82      2390     12.73
05/21 01:00      0.03      0.03     12.74      2354     12.73
05/21 02:00      0.75      0.67     12.79      2376     12.65
05/21 03:00      0.98      0.86     12.97      2457     12.65
05/21 04:00      0.12      0.12     12.92      2435     12.65
05/21 05:00      0.24      0.21     12.92      2435     12.65
05/21 06:00      0.23      0.20     13.01      2475     12.57
05/21 07:00      0.04      0.03     13.03      2485     12.57
05/21 08:00      0.00      0.01     13.11      2521     12.57
05/21 09:00      0.00      0.00     13.26      2589     13.37
05/21 10:00      0.00      0.00     13.61      2754     13.60
05/21 11:00      0.00      0.00     14.01      2951     13.68
05/21 12:00      0.00      0.00     14.55      3246     14.24
05/21 13:00      0.00      0.00     15.11      3561     13.53
05/21 14:00      0.00      0.00     15.61      3857     14.24
05/21 15:00      0.00      0.00     16.01      4102     14.24
05/21 16:00      0.00      0.00     16.40      4346     13.53
05/21 17:00      0.00      0.00     16.75      4569     13.53
05/21 18:00      0.00      0.00     16.94      4691     13.37
05/21 19:00      0.00      0.00     17.09      4788     13.37
05/21 20:00      0.00      0.00     17.23      4880     13.53
05/21 21:00      0.00      0.00     17.35      4959     13.13
05/21 22:00      0.00      0.00     17.42      5006     12.81
05/21 23:00      0.00      0.00     17.43      5013     12.81